createdAt,value
2019-03-19T00:02:14.629Z,5.10
2019-03-19T00:05:04.634Z,5.53
2019-03-19T00:07:54.461Z,5.30
2019-03-19T00:10:44.320Z,4.80
2019-03-19T00:13:34.286Z,5.10
2019-03-19T00:16:24.110Z,4.70
2019-03-19T00:19:13.980Z,4.50
2019-03-19T00:22:03.829Z,5.23
2019-03-19T00:24:53.671Z,4.90
2019-03-19T00:27:43.623Z,4.90
2019-03-19T00:30:33.529Z,4.73
2019-03-19T00:33:23.408Z,5.07
2019-03-19T00:35:53.896Z,5.00
2019-03-19T00:38:43.741Z,5.30
2019-03-19T00:41:33.597Z,5.23
2019-03-19T14:54:14.271Z,3.50
2019-03-19T14:57:04.074Z,4.37
2019-03-19T14:59:53.828Z,3.80
2019-03-19T15:02:43.653Z,3.63
2019-03-19T15:05:33.443Z,3.20
2019-03-19T15:08:25.430Z,4.27
2019-03-19T15:11:14.689Z,3.90
2019-03-19T15:14:04.508Z,3.53
2019-03-19T15:17:04.512Z,3.40
2019-03-19T15:19:37.124Z,3.40
2019-03-19T15:22:07.675Z,4.60
2019-03-19T15:24:57.465Z,2.50
2019-03-19T15:27:47.230Z,3.47
2019-03-19T15:30:37.123Z,3.10
2019-03-19T15:33:09.466Z,3.60
2019-03-19T15:35:59.270Z,3.00
2019-03-19T15:38:49.046Z,3.37
2019-03-19T15:41:39.035Z,3.37
2019-03-19T15:44:28.870Z,3.40
2019-03-19T15:47:18.677Z,2.97
2019-03-19T15:50:10.228Z,3.23
2019-03-19T15:53:00.029Z,2.63
2019-03-19T15:55:49.792Z,3.23
2019-03-19T15:58:39.605Z,3.23
2019-03-19T16:01:29.416Z,2.90
2019-03-19T16:04:12.877Z,3.10
2019-03-19T16:07:02.671Z,3.03
2019-03-19T16:09:52.470Z,2.40
2019-03-19T16:12:42.269Z,2.97
2019-03-19T16:15:32.084Z,2.43
2019-03-19T16:18:21.853Z,2.30
2019-03-19T16:21:11.709Z,2.63
2019-03-19T16:24:01.477Z,2.47
2019-03-19T16:26:31.978Z,3.00
2019-03-19T16:29:21.745Z,2.87
2019-03-19T16:31:52.140Z,2.70
2019-03-19T16:34:41.933Z,2.93
2019-03-19T16:37:31.746Z,2.93
2019-03-19T16:40:21.519Z,2.40
2019-03-19T16:43:11.288Z,3.50
2019-03-19T16:46:01.159Z,4.23
2019-03-19T16:48:50.942Z,3.23
2019-03-19T16:51:40.741Z,3.10
2019-03-19T16:54:30.549Z,3.07
2019-03-19T16:57:20.338Z,3.23
2019-03-19T17:00:13.021Z,3.47
2019-03-19T17:03:02.777Z,3.67
2019-03-19T17:05:52.560Z,3.20
2019-03-19T17:08:42.403Z,3.73
2019-03-19T17:11:32.230Z,3.50
2019-03-19T17:14:22.001Z,3.37
2019-03-19T17:17:11.837Z,3.07
2019-03-19T17:20:01.596Z,4.07
2019-03-19T17:22:51.403Z,3.27
2019-03-19T17:25:41.177Z,3.10
2019-03-19T17:28:31.018Z,2.70
2019-03-19T17:31:01.455Z,4.20
2019-03-19T17:33:31.892Z,5.70
2019-03-19T17:36:21.664Z,6.67
2019-03-19T17:39:11.498Z,4.43
2019-03-19T17:42:01.299Z,3.83
2019-03-19T17:44:51.094Z,4.40
2019-03-19T17:50:37.720Z,3.33
2019-03-19T17:53:27.536Z,3.43
2019-03-19T17:56:17.484Z,2.93
2019-03-19T17:59:07.612Z,4.80
2019-03-19T18:01:57.428Z,3.20
2019-03-19T18:04:47.228Z,4.00
2019-03-19T18:07:37.037Z,3.93
2019-03-19T18:10:07.715Z,5.57
2019-03-19T18:12:57.531Z,5.00
2019-03-19T18:15:47.323Z,3.90
2019-03-19T18:18:37.135Z,3.77
2019-03-19T18:21:07.560Z,3.27
2019-03-19T18:23:57.570Z,3.30
2019-03-19T18:26:47.361Z,3.93
2019-03-19T18:29:37.212Z,3.63
2019-03-19T18:32:07.644Z,4.30
2019-03-19T18:34:57.514Z,3.20
2019-03-19T18:37:47.263Z,3.93
2019-03-19T18:40:37.197Z,4.17
2019-03-19T18:43:07.755Z,3.87
2019-03-19T18:45:57.714Z,4.03
2019-03-19T18:48:47.543Z,3.43
2019-03-19T18:51:37.340Z,3.47
2019-03-19T18:54:27.102Z,3.40
2019-03-19T18:57:16.918Z,3.97
2019-03-19T19:03:32.118Z,3.90
2019-03-19T19:06:21.927Z,4.80
2019-03-19T19:09:11.828Z,3.83
2019-03-19T19:12:01.668Z,4.20
2019-03-19T19:14:51.483Z,4.13
2019-03-19T19:17:41.257Z,3.60
2019-03-19T19:20:31.064Z,3.23
2019-03-19T19:23:20.852Z,4.07
2019-03-19T19:26:10.663Z,3.87
2019-03-19T19:29:00.466Z,3.80
2019-03-19T19:31:50.253Z,4.20
2019-03-19T19:34:40.045Z,4.03
2019-03-19T19:37:29.861Z,3.83
2019-03-19T19:40:19.617Z,3.80
2019-03-19T19:43:09.452Z,3.93
2019-03-19T19:45:59.248Z,4.30
2019-03-19T19:48:49.064Z,4.23
2019-03-19T19:51:38.852Z,4.67
2019-03-19T19:54:28.660Z,4.77
2019-03-19T19:56:59.058Z,4.20
2019-03-19T19:59:48.931Z,3.87
2019-03-19T20:02:38.714Z,4.30
2019-03-19T20:05:28.534Z,4.23
2019-03-19T20:07:58.914Z,4.57
2019-03-19T20:10:48.735Z,4.87
2019-03-19T20:13:38.521Z,4.40
2019-03-19T20:16:28.336Z,4.40
2019-03-19T20:18:58.816Z,3.67
2019-03-19T20:21:48.641Z,4.47
2019-03-19T20:24:38.468Z,5.13
2019-03-19T20:27:28.313Z,4.97
2019-03-19T20:29:58.869Z,4.80
2019-03-19T20:32:48.660Z,3.80
2019-03-19T20:35:38.431Z,4.30
2019-03-19T20:38:28.234Z,4.43
2019-03-19T20:40:58.652Z,4.70
2019-03-19T20:43:48.510Z,4.40
2019-03-19T20:46:38.309Z,4.23
2019-03-19T20:49:28.195Z,4.50
2019-03-19T20:51:58.717Z,4.77
2019-03-19T20:54:48.534Z,4.20
2019-03-19T20:57:38.339Z,4.40
2019-03-19T21:00:10.734Z,3.73
2019-03-19T21:02:41.306Z,4.00
2019-03-19T21:05:31.112Z,4.53
2019-03-19T21:08:20.907Z,5.10
2019-03-19T21:11:10.780Z,4.50
2019-03-19T21:14:00.570Z,4.57
2019-03-19T21:16:50.395Z,4.77
2019-03-19T21:19:40.196Z,3.83
2019-03-19T21:22:30.007Z,4.20
2019-03-19T21:25:19.808Z,5.30
2019-03-19T21:28:13.944Z,4.70
2019-03-19T21:30:47.297Z,4.50
2019-03-19T21:33:37.643Z,3.53
2019-03-19T21:36:09.703Z,3.90
2019-03-19T21:38:59.544Z,4.63
2019-03-19T21:41:49.354Z,4.73
2019-03-19T21:44:39.693Z,4.37
2019-03-19T21:47:29.538Z,3.70
2019-03-19T21:50:19.386Z,3.70
2019-03-19T21:53:09.167Z,4.43
2019-03-19T21:55:59.103Z,4.03
2019-03-19T21:58:48.897Z,4.80
2019-03-19T22:01:38.776Z,4.47
2019-03-19T22:04:28.635Z,4.60
2019-03-19T22:06:59.079Z,4.20
2019-03-19T22:09:48.929Z,3.50
2019-03-19T22:12:38.745Z,4.80
2019-03-19T22:15:28.711Z,4.10
2019-03-19T22:17:59.140Z,4.87
2019-03-19T22:20:48.986Z,4.20
2019-03-19T22:23:38.844Z,4.13
2019-03-19T22:26:28.639Z,4.40
2019-03-19T22:28:59.080Z,4.70
2019-03-19T22:31:49.736Z,4.93
2019-03-19T22:34:39.567Z,4.23
2019-03-19T22:37:29.410Z,5.10
2019-03-19T22:40:19.439Z,4.53
2019-03-19T22:43:09.282Z,4.10
2019-03-19T22:45:59.131Z,4.70
2019-03-19T22:48:49.124Z,4.43
2019-03-19T22:51:19.678Z,5.07
2019-03-19T22:54:09.556Z,5.00
2019-03-19T22:56:59.329Z,4.57
2019-03-19T22:59:49.123Z,5.03
2019-03-19T23:02:38.929Z,5.03
2019-03-19T23:05:28.707Z,4.70
2019-03-19T23:07:59.092Z,4.90
2019-03-19T23:10:48.866Z,5.23
2019-03-19T23:13:38.677Z,4.80
2019-03-19T23:16:28.455Z,5.00
2019-03-19T23:18:58.902Z,6.03
2019-03-19T23:21:48.660Z,5.07
2019-03-19T23:24:38.525Z,5.30
2019-03-19T23:27:28.299Z,4.40
2019-03-19T23:29:58.674Z,5.50
2019-03-19T23:32:29.062Z,4.83
2019-03-19T23:34:59.460Z,5.57
2019-03-19T23:37:49.233Z,4.70
2019-03-19T23:40:39.040Z,4.90
2019-03-19T23:43:28.815Z,5.87
2019-03-19T23:45:59.225Z,5.30
2019-03-19T23:48:49.039Z,5.07
2019-03-19T23:51:38.915Z,5.20
2019-03-19T23:54:28.698Z,4.53
2019-03-19T23:57:00.787Z,4.63
2019-03-19T23:59:50.582Z,4.90
